Time;durP1;ratioP1;P1;durP2;ratioP2;P2;SDS_P1;SDS_P2;PMS_P1;PMS_P2;Temp;Humidity;BMP_temperature;BMP_pressure;BME280_temperature;BME280_humidity;BME280_pressure;Samples;Min_cycle;Max_cycle;Signal;HPM_P1;HPM_P2
2024/01/06 00:04:47;;;;;;;1999.90;999.90;;;;;;;6.54;100.00;100244.88;10418955;28;20051;-63
2024/01/06 00:09:50;;;;;;;1999.90;999.90;;;;;;;6.88;100.00;100244.88;10420076;28;20045;-63
2024/01/06 00:14:52;;;;;;;1999.90;999.90;;;;;;;6.51;100.00;100253.69;10419862;28;20053;-63
2024/01/06 00:19:54;;;;;;;1999.90;999.90;;;;;;;6.59;100.00;100255.91;10419698;28;20060;-63
2024/01/06 00:24:57;;;;;;;1999.90;999.90;;;;;;;6.51;100.00;100261.50;10417830;28;20496;-62
2024/01/06 00:29:59;;;;;;;1999.90;999.90;;;;;;;6.68;100.00;100269.31;10418315;28;20045;-63
2024/01/06 00:35:02;;;;;;;1999.90;999.90;;;;;;;6.28;100.00;100270.41;10418917;28;20492;-63
2024/01/06 00:40:05;;;;;;;1999.90;999.90;;;;;;;6.52;100.00;100281.38;10419243;28;20156;-63
2024/01/06 00:45:08;;;;;;;1999.90;999.90;;;;;;;6.37;100.00;100277.78;10417612;28;20053;-63
2024/01/06 00:50:10;;;;;;;1999.90;999.90;;;;;;;6.06;100.00;100278.38;10417197;28;20045;-63
2024/01/06 00:55:13;;;;;;;1999.90;999.90;;;;;;;6.04;100.00;100283.66;10417037;28;20412;-62
2024/01/06 01:00:15;;;;;;;1999.90;999.90;;;;;;;5.83;100.00;100287.19;10417836;28;20495;-62
2024/01/06 01:05:18;;;;;;;1999.90;999.90;;;;;;;5.95;100.00;100282.28;10417720;28;20045;-62
2024/01/06 01:10:20;;;;;;;1999.90;999.90;;;;;;;6.10;100.00;100291.16;10417741;28;20053;-63
2024/01/06 01:15:22;;;;;;;1999.90;999.90;;;;;;;6.26;100.00;100293.88;10417878;28;20049;-63
2024/01/06 01:20:25;;;;;;;1999.90;999.90;;;;;;;5.95;100.00;100297.88;10416675;28;20057;-63
2024/01/06 01:25:27;;;;;;;1999.90;999.90;;;;;;;5.98;100.00;100303.88;10416795;28;20059;-63
2024/01/06 01:30:30;;;;;;;1999.90;999.90;;;;;;;6.08;100.00;100313.75;10416735;28;20476;-63
2024/01/06 01:35:33;;;;;;;1999.90;999.90;;;;;;;6.10;100.00;100316.28;10416597;28;20046;-63
2024/01/06 01:40:35;;;;;;;1999.90;999.90;;;;;;;5.93;100.00;100332.63;10416349;28;20103;-63
2024/01/06 01:45:38;;;;;;;1999.90;999.90;;;;;;;6.06;100.00;100338.16;10416269;28;20049;-63
2024/01/06 01:50:41;;;;;;;1999.90;999.90;;;;;;;6.03;100.00;100344.31;10415080;28;20046;-63
2024/01/06 01:55:44;;;;;;;1999.90;999.90;;;;;;;5.74;100.00;100358.59;10416229;28;20055;-63
2024/01/06 02:00:47;;;;;;;1999.90;999.90;;;;;;;5.66;100.00;100358.94;10414803;28;20059;-63
2024/01/06 02:05:49;;;;;;;1999.90;999.90;;;;;;;5.88;100.00;100360.59;10415645;28;20510;-63
2024/01/06 02:10:56;;;;;;;1999.90;999.90;;;;;;;5.62;100.00;100360.00;10415652;28;20052;-63
2024/01/06 02:15:59;;;;;;;1999.90;999.90;;;;;;;5.51;100.00;100364.81;10414213;28;20382;-62
2024/01/06 02:21:02;;;;;;;1999.90;999.90;;;;;;;5.69;100.00;100368.38;10415431;28;20129;-63
2024/01/06 02:26:05;;;;;;;1999.90;999.90;;;;;;;5.45;100.00;100375.47;10413655;28;20569;-62
2024/01/06 02:31:07;;;;;;;1999.90;999.90;;;;;;;5.88;100.00;100377.00;10414617;28;20124;-62
2024/01/06 02:36:10;;;;;;;1999.90;999.90;;;;;;;5.83;100.00;100386.75;10413864;28;20099;-62
2024/01/06 02:41:12;;;;;;;1999.90;999.90;;;;;;;5.72;100.00;100387.25;10414798;28;20045;-62
2024/01/06 02:46:15;;;;;;;1999.90;999.90;;;;;;;5.67;100.00;100397.00;10417181;28;20081;-63
2024/01/06 02:51:17;;;;;;;1999.90;999.90;;;;;;;5.52;100.00;100416.66;10422997;28;20133;-63
2024/01/06 02:56:20;;;;;;;1999.90;999.90;;;;;;;5.50;100.00;100418.50;10422967;28;20103;-63
2024/01/06 03:01:22;;;;;;;1999.90;999.90;;;;;;;5.62;100.00;100434.47;10422448;28;20124;-63
2024/01/06 03:06:24;;;;;;;1999.90;999.90;;;;;;;5.51;100.00;100434.91;10422609;28;20129;-63
2024/01/06 03:11:27;;;;;;;1999.90;999.90;;;;;;;5.29;100.00;100441.00;10421226;28;20103;-63
2024/01/06 03:16:29;;;;;;;1999.90;999.90;;;;;;;5.01;100.00;100449.06;10420879;28;20055;-63
2024/01/06 03:21:31;;;;;;;1999.90;999.90;;;;;;;5.07;100.00;100464.38;10420641;28;20051;-62
2024/01/06 03:26:34;;;;;;;1999.90;999.90;;;;;;;5.43;100.00;100462.94;10421532;28;20085;-63
2024/01/06 03:31:36;;;;;;;1999.90;999.90;;;;;;;5.18;100.00;100469.16;10421429;28;20045;-63
2024/01/06 03:36:39;;;;;;;1999.90;999.90;;;;;;;5.17;100.00;100470.06;10421525;28;20057;-63
2024/01/06 03:41:41;;;;;;;1999.90;999.90;;;;;;;5.32;100.00;100466.84;10419841;28;20080;-63
2024/01/06 03:46:44;;;;;;;1999.90;999.90;;;;;;;5.37;100.00;100464.88;10421053;28;20128;-63
2024/01/06 03:51:46;;;;;;;1999.90;999.90;;;;;;;5.42;100.00;100472.50;10420755;28;20076;-63
2024/01/06 03:56:49;;;;;;;1999.90;999.90;;;;;;;5.31;100.00;100493.72;10420155;28;20045;-62
2024/01/06 04:01:51;;;;;;;1999.90;999.90;;;;;;;5.26;100.00;100490.47;10418961;28;20374;-62
2024/01/06 04:06:53;;;;;;;1999.90;999.90;;;;;;;5.03;100.00;100499.16;10420090;28;20096;-62
2024/01/06 04:11:56;;;;;;;1999.90;999.90;;;;;;;5.02;100.00;100505.22;10420115;28;20133;-62
2024/01/06 04:16:58;;;;;;;1999.90;999.90;;;;;;;5.09;100.00;100506.69;10419722;28;20054;-63
2024/01/06 04:22:01;;;;;;;1999.90;999.90;;;;;;;5.19;100.00;100499.38;10419992;28;20077;-63
2024/01/06 04:27:06;;;;;;;1999.90;999.90;;;;;;;5.11;100.00;100504.88;10419291;28;20128;-62
2024/01/06 04:32:09;;;;;;;1999.90;999.90;;;;;;;5.18;100.00;100510.69;10419481;28;20049;-63
2024/01/06 04:37:11;;;;;;;1999.90;999.90;;;;;;;5.19;100.00;100513.22;10417263;22;20046;-63
2024/01/06 04:42:13;;;;;;;1999.90;999.90;;;;;;;5.27;100.00;100525.03;10337565;28;20149;-62
2024/01/06 04:47:16;;;;;;;1999.90;999.90;;;;;;;5.00;100.00;100536.44;10337187;28;20452;-63
2024/01/06 04:52:18;;;;;;;1999.90;999.90;;;;;;;5.14;100.00;100529.88;10336324;28;20046;-63
2024/01/06 04:57:21;;;;;;;1999.90;999.90;;;;;;;5.25;100.00;100547.63;10335618;28;20482;-63
2024/01/06 05:02:24;;;;;;;1999.90;999.90;;;;;;;4.98;100.00;100556.41;10336531;28;20093;-63
2024/01/06 05:07:26;;;;;;;1999.90;999.90;;;;;;;5.01;100.00;100555.47;10336333;28;20482;-63
2024/01/06 05:12:28;;;;;;;1999.90;999.90;;;;;;;4.96;100.00;100563.41;10335249;28;20490;-63
2024/01/06 05:17:31;;;;;;;1999.90;999.90;;;;;;;4.94;100.00;100561.75;10336382;28;20050;-62
2024/01/06 05:22:33;;;;;;;1999.90;999.90;;;;;;;5.08;100.00;100559.50;10335876;28;20055;-63
2024/01/06 05:27:36;;;;;;;1999.90;999.90;;;;;;;5.21;100.00;100571.09;10335729;28;20054;-63
2024/01/06 05:32:38;;;;;;;1999.90;999.90;;;;;;;4.99;100.00;100572.81;10335600;28;20125;-63
2024/01/06 05:37:41;;;;;;;1999.90;999.90;;;;;;;4.91;100.00;100583.50;10335032;28;20494;-63
2024/01/06 05:42:43;;;;;;;1999.90;999.90;;;;;;;4.59;100.00;100592.44;10334287;28;20042;-62
2024/01/06 05:47:46;;;;;;;1999.90;999.90;;;;;;;4.36;100.00;100596.69;10333620;28;20489;-62
2024/01/06 05:52:48;;;;;;;1999.90;999.90;;;;;;;4.59;100.00;100601.06;10334727;28;20095;-63
2024/01/06 05:57:51;;;;;;;1999.90;999.90;;;;;;;4.92;100.00;100607.69;10334758;28;20056;-62
2024/01/06 06:02:53;;;;;;;1999.90;999.90;;;;;;;4.77;100.00;100614.28;10334549;28;20465;-62
2024/01/06 06:07:55;;;;;;;1999.90;999.90;;;;;;;4.88;100.00;100622.53;10334444;28;20058;-62
2024/01/06 06:12:58;;;;;;;1999.90;999.90;;;;;;;4.64;100.00;100634.63;10333121;28;20130;-62
2024/01/06 06:18:00;;;;;;;1999.90;999.90;;;;;;;4.59;100.00;100647.75;10333910;28;20058;-63
2024/01/06 06:23:03;;;;;;;1999.90;999.90;;;;;;;4.50;100.00;100650.66;10332415;28;20042;-63
2024/01/06 06:28:06;;;;;;;1999.90;999.90;;;;;;;4.52;100.00;100663.56;10333822;28;20061;-63
2024/01/06 06:33:08;;;;;;;1999.90;999.90;;;;;;;4.30;100.00;100679.84;10333980;28;20050;-63
2024/01/06 06:38:11;;;;;;;1999.90;999.90;;;;;;;3.96;100.00;100680.94;10333737;28;20059;-63
2024/01/06 06:43:14;;;;;;;1999.90;999.90;;;;;;;4.16;100.00;100693.25;10348583;28;20081;-62
2024/01/06 06:48:21;;;;;;;1999.90;999.90;;;;;;;4.27;100.00;100698.09;10333479;28;20508;-63
2024/01/06 06:53:23;;;;;;;1999.90;999.90;;;;;;;4.14;100.00;100699.41;10333408;28;20046;-62
2024/01/06 06:58:25;;;;;;;1999.90;999.90;;;;;;;4.16;100.00;100711.38;10333398;28;20054;-62
2024/01/06 07:03:28;;;;;;;1999.90;999.90;;;;;;;4.24;100.00;100721.53;10333185;28;20053;-63
2024/01/06 07:08:30;;;;;;;1999.90;999.90;;;;;;;4.24;100.00;100740.50;10333254;28;20055;-62
2024/01/06 07:13:32;;;;;;;1999.90;999.90;;;;;;;4.15;100.00;100745.13;10333007;28;20117;-63
2024/01/06 07:18:35;;;;;;;1999.90;999.90;;;;;;;4.34;100.00;100742.78;10331695;28;20417;-62
2024/01/06 07:23:37;;;;;;;1999.90;999.90;;;;;;;4.16;100.00;100754.59;10332865;28;20137;-63
2024/01/06 07:28:40;;;;;;;1999.90;999.90;;;;;;;3.95;100.00;100764.75;10332695;28;20074;-62
2024/01/06 07:33:42;;;;;;;1999.90;999.90;;;;;;;3.64;100.00;100775.16;10335232;28;20182;-62
2024/01/06 07:38:45;;;;;;;1999.90;999.90;;;;;;;3.62;100.00;100782.13;10339567;28;20112;-62
2024/01/06 07:43:48;;;;;;;1999.90;999.90;;;;;;;4.04;100.00;100786.94;10340053;28;20043;-63
2024/01/06 07:48:50;;;;;;;1999.90;999.90;;;;;;;4.07;100.00;100792.84;10339553;28;20057;-62
2024/01/06 07:53:53;;;;;;;1999.90;999.90;;;;;;;3.90;100.00;100795.97;10322616;28;20074;-62
2024/01/06 07:58:55;;;;;;;1999.90;999.90;;;;;;;4.23;100.00;100806.19;10339779;28;20073;-63
2024/01/06 08:03:58;;;;;;;1999.90;999.90;;;;;;;3.75;100.00;100808.50;10338705;28;20428;-62
2024/01/06 08:09:00;;;;;;;1999.90;999.90;;;;;;;4.04;100.00;100813.66;10338939;28;20079;-62
2024/01/06 08:14:03;;;;;;;1999.90;999.90;;;;;;;3.96;100.00;100831.19;10337424;28;20046;-62
2024/01/06 08:19:05;;;;;;;1999.90;999.90;;;;;;;3.76;100.00;100849.03;10338319;28;20129;-62
2024/01/06 08:24:07;;;;;;;1999.90;999.90;;;;;;;4.07;100.00;100856.78;10338576;28;20050;-62
2024/01/06 08:29:10;;;;;;;1999.90;999.90;;;;;;;3.97;100.00;100855.34;10336814;28;20382;-62
2024/01/06 08:34:12;;;;;;;1999.90;999.90;;;;;;;4.05;100.00;100871.50;10337911;28;20101;-62
2024/01/06 08:39:15;;;;;;;1999.90;999.90;;;;;;;3.95;100.00;100876.13;10336411;28;20068;-62
2024/01/06 08:44:18;;;;;;;1999.90;999.90;;;;;;;3.94;100.00;100884.78;10337268;28;20054;-62
2024/01/06 08:49:20;;;;;;;1999.90;999.90;;;;;;;3.87;100.00;100893.63;10336422;28;20133;-63
2024/01/06 08:54:22;;;;;;;1999.90;999.90;;;;;;;3.74;100.00;100897.44;10336954;28;20097;-62
2024/01/06 08:59:25;;;;;;;1999.90;999.90;;;;;;;3.75;100.00;100902.59;10336574;28;20512;-62
2024/01/06 09:04:27;;;;;;;1999.90;999.90;;;;;;;3.99;100.00;100911.41;10335414;28;20058;-63
2024/01/06 09:09:30;;;;;;;1999.90;999.90;;;;;;;3.93;100.00;100928.88;10336465;28;20104;-62
2024/01/06 09:14:32;;;;;;;1999.90;999.90;;;;;;;3.96;100.00;100928.78;10335238;28;20043;-62
2024/01/06 09:19:35;;;;;;;1999.90;999.90;;;;;;;4.12;100.00;100931.78;10335258;28;20156;-63
2024/01/06 09:24:37;;;;;;;1999.90;999.90;;;;;;;3.94;100.00;100940.94;10335598;28;20065;-62
2024/01/06 09:29:39;;;;;;;1999.90;999.90;;;;;;;4.02;100.00;100955.38;10335598;28;20074;-62
2024/01/06 09:34:42;;;;;;;1999.90;999.90;;;;;;;3.70;100.00;100964.84;10335615;28;20046;-62
2024/01/06 09:39:44;;;;;;;1999.90;999.90;;;;;;;3.77;100.00;100975.06;10333767;28;20058;-62
2024/01/06 09:44:47;;;;;;;1999.90;999.90;;;;;;;3.73;100.00;100984.63;10335418;28;20379;-62
2024/01/06 09:49:50;;;;;;;1999.90;999.90;;;;;;;3.62;100.00;100995.28;10334965;28;20054;-62
2024/01/06 09:54:54;;;;;;;1999.90;999.90;;;;;;;3.64;100.00;100997.81;10334118;28;20073;-62
2024/01/06 09:59:59;;;;;;;1999.90;999.90;;;;;;;3.63;100.00;101007.34;10333531;28;20054;-62
2024/01/06 10:05:01;;;;;;;1999.90;999.90;;;;;;;3.46;100.00;101012.06;10334299;28;20081;-62
2024/01/06 10:10:05;;;;;;;1999.90;999.90;;;;;;;3.53;100.00;101011.03;10333099;28;20510;-62
2024/01/06 10:15:09;;;;;;;1999.90;999.90;;;;;;;3.66;100.00;101021.94;10333109;28;20054;-62
2024/01/06 10:20:12;;;;;;;1999.90;999.90;;;;;;;3.99;100.00;101021.97;10333314;28;20409;-62
2024/01/06 10:25:15;;;;;;;1999.90;999.90;;;;;;;3.95;100.00;101026.38;10334050;28;20057;-62
2024/01/06 10:30:18;;;;;;;1999.90;999.90;;;;;;;3.64;100.00;101029.75;10334281;28;20062;-62
2024/01/06 10:35:20;;;;;;;1999.90;999.90;;;;;;;3.78;100.00;101031.13;10333797;28;20046;-62
2024/01/06 10:40:23;;;;;;;1999.90;999.90;;;;;;;3.62;100.00;101038.44;10333468;28;20057;-62
2024/01/06 10:45:25;;;;;;;1999.90;999.90;;;;;;;3.65;100.00;101036.63;10333584;28;20046;-62
2024/01/06 10:50:29;;;;;;;1999.90;999.90;;;;;;;3.79;100.00;101040.63;10332407;28;20085;-62
2024/01/06 10:55:32;;;;;;;1999.90;999.90;;;;;;;4.00;100.00;101046.97;10332174;28;20077;-62
2024/01/06 11:00:34;;;;;;;1999.90;999.90;;;;;;;3.86;100.00;101047.34;10316100;28;20166;-62
2024/01/06 11:05:37;;;;;;;1999.90;999.90;;;;;;;3.65;100.00;101054.75;10333159;28;20101;-63
2024/01/06 11:10:41;;;;;;;1999.90;999.90;;;;;;;3.59;100.00;101067.84;10339082;28;20057;-62
2024/01/06 11:15:46;;;;;;;1999.90;999.90;;;;;;;3.90;100.00;101064.50;10339497;28;20057;-63
2024/01/06 11:21:27;;;;;;;1999.90;999.90;;;;;;;3.64;100.00;101070.34;10339412;28;20058;-62
2024/01/06 11:26:30;;;;;;;1999.90;999.90;;;;;;;3.20;100.00;101069.63;10339488;28;20146;-62
2024/01/06 11:31:33;;;;;;;1999.90;999.90;;;;;;;3.75;100.00;101076.09;10339390;28;20050;-63
2024/01/06 11:36:37;;;;;;;1999.90;999.90;;;;;;;3.30;100.00;101071.97;10338829;28;20050;-62
2024/01/06 11:41:49;;;;;;;1999.90;999.90;;;;;;;3.76;100.00;101075.19;10338341;28;20054;-63
2024/01/06 11:46:52;;;;;;;1999.90;999.90;;;;;;;3.79;100.00;101080.31;10339695;28;20082;-63
2024/01/06 11:51:54;;;;;;;1999.90;999.90;;;;;;;3.64;100.00;101078.94;10322493;28;20046;-62
2024/01/06 11:56:57;;;;;;;1999.90;999.90;;;;;;;3.46;100.00;101075.06;10322244;28;20061;-62
2024/01/06 12:01:59;;;;;;;1999.90;999.90;;;;;;;3.47;100.00;101068.16;10338954;28;20042;-63
2024/01/06 12:07:08;;;;;;;1999.90;999.90;;;;;;;3.72;100.00;101084.78;10339024;28;20097;-62
2024/01/06 12:12:13;;;;;;;1999.90;999.90;;;;;;;3.73;100.00;101077.88;10338155;28;20054;-62
2024/01/06 12:17:16;;;;;;;1999.90;999.90;;;;;;;3.45;100.00;101075.94;10338693;28;20133;-62
2024/01/06 12:22:19;;;;;;;1999.90;999.90;;;;;;;3.20;100.00;101083.41;10337603;28;20419;-62
2024/01/06 12:27:21;;;;;;;1999.90;999.90;;;;;;;3.38;100.00;101079.56;10338322;28;20060;-62
2024/01/06 12:32:25;;;;;;;1999.90;999.90;;;;;;;3.67;100.00;101081.47;10338119;28;20096;-63
2024/01/06 12:37:28;;;;;;;1999.90;999.90;;;;;;;3.41;100.00;101079.47;10336258;28;20070;-63
2024/01/06 12:42:30;;;;;;;1999.90;999.90;;;;;;;3.55;100.00;101074.00;10337418;28;20397;-63
2024/01/06 12:47:33;;;;;;;1999.90;999.90;;;;;;;3.49;100.00;101079.31;10337249;28;20051;-63
2024/01/06 12:52:37;;;;;;;1999.90;999.90;;;;;;;3.19;100.00;101083.44;10336146;28;20050;-62
2024/01/06 12:57:40;;;;;;;1999.90;999.90;;;;;;;3.54;100.00;101090.41;10335775;28;20109;-69
2024/01/06 13:02:42;;;;;;;1999.90;999.90;;;;;;;3.34;100.00;101099.47;10335414;28;20073;-63
2024/01/06 13:07:45;;;;;;;1999.90;999.90;;;;;;;3.37;100.00;101102.91;10336532;28;20054;-63
2024/01/06 13:12:47;;;;;;;1999.90;999.90;;;;;;;3.60;100.00;101102.34;10336299;28;20046;-63
2024/01/06 13:17:54;;;;;;;1999.90;999.90;;;;;;;3.37;100.00;101114.09;10334947;28;20545;-63
2024/01/06 13:22:57;;;;;;;1999.90;999.90;;;;;;;3.40;100.00;101115.78;10335809;28;20560;-63
2024/01/06 13:27:59;;;;;;;1999.90;999.90;;;;;;;3.49;100.00;101111.22;10334486;28;20481;-63
2024/01/06 13:33:02;;;;;;;1999.90;999.90;;;;;;;3.12;100.00;101116.38;10334807;28;20052;-63
2024/01/06 13:38:05;;;;;;;1999.90;999.90;;;;;;;3.46;100.00;101123.38;10335072;28;20062;-62
2024/01/06 13:43:15;;;;;;;1999.90;999.90;;;;;;;3.71;100.00;101126.25;10333839;28;20498;-63
2024/01/06 13:48:18;;;;;;;1999.90;999.90;;;;;;;3.48;100.00;101131.97;10335010;28;20077;-62
2024/01/06 13:53:21;;;;;;;1999.90;999.90;;;;;;;3.33;100.00;101133.19;10318043;28;20042;-62
2024/01/06 13:58:23;;;;;;;1999.90;999.90;;;;;;;3.04;100.00;101137.22;10317231;28;20050;-62
2024/01/06 14:03:26;;;;;;;1999.90;999.90;;;;;;;3.48;100.00;101137.13;10334597;28;20050;-62
2024/01/06 14:08:28;;;;;;;1999.90;999.90;;;;;;;3.59;100.00;101132.56;10333223;28;20054;-63
2024/01/06 14:13:30;;;;;;;1999.90;999.90;;;;;;;3.03;100.00;101143.28;10332936;28;20042;-62
2024/01/06 14:18:35;;;;;;;1999.90;999.90;;;;;;;3.04;100.00;101151.88;10333154;28;20054;-62
2024/01/06 14:23:37;;;;;;;1999.90;999.90;;;;;;;3.03;100.00;101153.63;10333967;28;20413;-62
2024/01/06 14:28:40;;;;;;;1999.90;999.90;;;;;;;2.82;100.00;101167.84;10332611;28;20058;-62
2024/01/06 14:33:42;;;;;;;1999.90;999.90;;;;;;;2.94;100.00;101180.53;10332514;28;20046;-62
2024/01/06 14:38:45;;;;;;;1999.90;999.90;;;;;;;2.87;100.00;101191.03;10333866;28;20062;-62
2024/01/06 14:43:48;;;;;;;1999.90;999.90;;;;;;;2.90;100.00;101193.56;10338423;28;20050;-62
2024/01/06 14:48:51;;;;;;;1999.90;999.90;;;;;;;2.91;100.00;101206.47;10341762;28;20061;-62
2024/01/06 14:53:55;;;;;;;1999.90;999.90;;;;;;;3.14;100.00;101210.31;10341587;28;20047;-62
2024/01/06 14:58:58;;;;;;;1999.90;999.90;;;;;;;2.95;100.00;101217.59;10340409;28;20058;-62
2024/01/06 15:04:00;;;;;;;1999.90;999.90;;;;;;;2.68;100.00;101217.22;10339875;28;20478;-62
2024/01/06 15:09:03;;;;;;;1999.90;999.90;;;;;;;2.95;100.00;101228.78;10340919;28;20088;-62
2024/01/06 15:14:08;;;;;;;1999.90;999.90;;;;;;;3.15;100.00;101231.00;10340888;28;20074;-62
2024/01/06 15:19:12;;;;;;;1999.90;999.90;;;;;;;3.13;100.00;101229.34;10340754;28;20076;-62
2024/01/06 15:24:16;;;;;;;1999.90;999.90;;;;;;;3.26;100.00;101238.56;10339186;28;20172;-62
2024/01/06 15:29:20;;;;;;;1999.90;999.90;;;;;;;3.10;100.00;101250.94;10338975;28;20493;-63
2024/01/06 15:34:25;;;;;;;1999.90;999.90;;;;;;;3.10;100.00;101248.34;10338878;28;20052;-63
2024/01/06 15:39:27;;;;;;;1999.90;999.90;;;;;;;3.35;100.00;101263.41;10307329;28;20096;-63
2024/01/06 15:44:42;;;;;;;1999.90;999.90;;;;;;;2.81;100.00;101272.19;10340027;28;20129;-62
2024/01/06 15:49:44;;;;;;;1999.90;999.90;;;;;;;2.98;100.00;101277.03;10340202;28;20133;-62
2024/01/06 15:54:49;;;;;;;1999.90;999.90;;;;;;;2.76;100.00;101289.50;10338536;28;20050;-62
2024/01/06 15:59:52;;;;;;;1999.90;999.90;;;;;;;2.66;100.00;101287.97;10339116;28;20046;-62
2024/01/06 16:04:54;;;;;;;1999.90;999.90;;;;;;;2.74;100.00;101289.53;10338882;28;20397;-62
2024/01/06 16:09:57;;;;;;;1999.90;999.90;;;;;;;2.96;100.00;101296.91;10338657;28;20066;-62
2024/01/06 16:14:59;;;;;;;1999.90;999.90;;;;;;;3.13;100.00;101300.03;10338806;28;20059;-62
2024/01/06 16:20:01;;;;;;;1999.90;999.90;;;;;;;3.33;100.00;101312.63;10338434;28;20058;-62
2024/01/06 16:25:08;;;;;;;1999.90;999.90;;;;;;;3.07;100.00;101309.66;10338393;28;20077;-62
2024/01/06 16:30:11;;;;;;;1999.90;999.90;;;;;;;3.10;100.00;101318.22;10338013;28;20057;-63
2024/01/06 16:35:14;;;;;;;1999.90;999.90;;;;;;;3.17;100.00;101326.72;10337649;28;20064;-63
2024/01/06 16:40:16;;;;;;;1999.90;999.90;;;;;;;3.10;100.00;101328.56;10337326;28;20064;-62
2024/01/06 16:45:19;;;;;;;1999.90;999.90;;;;;;;3.01;100.00;101326.16;10336117;28;20383;-63
2024/01/06 16:50:21;;;;;;;1999.90;999.90;;;;;;;3.12;100.00;101337.13;10337184;28;20058;-62
2024/01/06 16:55:24;;;;;;;1999.90;999.90;;;;;;;2.98;100.00;101334.81;10344624;23;20054;-63
2024/01/06 17:00:27;;;;;;;1999.90;999.90;;;;;;;3.03;100.00;101329.56;10336773;28;20408;-63
2024/01/06 17:05:30;;;;;;;1999.90;999.90;;;;;;;3.27;100.00;101332.56;10335392;28;20120;-64
2024/01/06 17:10:33;;;;;;;1999.90;999.90;;;;;;;2.93;100.00;101346.13;10336212;28;20081;-63
2024/01/06 17:15:35;;;;;;;1999.90;999.90;;;;;;;2.95;100.00;101349.53;10336390;28;20050;-64
2024/01/06 17:20:39;;;;;;;1999.90;999.90;;;;;;;2.87;100.00;101348.78;10335900;28;20490;-64
2024/01/06 17:25:41;;;;;;;1999.90;999.90;;;;;;;2.76;100.00;101347.25;10335730;28;20101;-64
2024/01/06 17:30:44;;;;;;;1999.90;999.90;;;;;;;2.84;100.00;101357.47;10335667;28;20137;-63
2024/01/06 17:35:46;;;;;;;1999.90;999.90;;;;;;;3.00;100.00;101362.38;10335649;28;20093;-63
2024/01/06 17:40:48;;;;;;;1999.90;999.90;;;;;;;2.94;100.00;101369.38;10335398;28;20084;-64
2024/01/06 17:45:51;;;;;;;1999.90;999.90;;;;;;;2.78;100.00;101366.16;10334126;28;20397;-64
2024/01/06 17:50:53;;;;;;;1999.90;999.90;;;;;;;2.65;100.00;101381.91;10335048;28;20413;-64
2024/01/06 17:55:55;;;;;;;1999.90;999.90;;;;;;;2.93;100.00;101384.91;10334660;28;20060;-63
2024/01/06 18:00:58;;;;;;;1999.90;999.90;;;;;;;2.79;100.00;101393.75;10334753;28;20050;-64
2024/01/06 18:06:01;;;;;;;1999.90;999.90;;;;;;;2.89;100.00;101396.16;10333340;28;20069;-64
2024/01/06 18:11:04;;;;;;;1999.90;999.90;;;;;;;2.69;100.00;101405.09;10333080;28;20058;-63
2024/01/06 18:16:07;;;;;;;1999.90;999.90;;;;;;;2.79;100.00;101408.38;10333922;28;20042;-64
2024/01/06 18:21:09;;;;;;;1999.90;999.90;;;;;;;2.80;100.00;101407.53;10334082;28;20054;-63
2024/01/06 18:26:16;;;;;;;1999.90;999.90;;;;;;;2.41;100.00;101408.06;10334014;28;20053;-63
2024/01/06 18:31:19;;;;;;;1999.90;999.90;;;;;;;2.84;100.00;101406.63;10334083;28;20054;-63
2024/01/06 18:36:22;;;;;;;1999.90;999.90;;;;;;;2.69;100.00;101419.75;10333692;28;20085;-64
2024/01/06 18:41:24;;;;;;;1999.90;999.90;;;;;;;2.83;100.00;101417.81;10333576;28;20085;-64
2024/01/06 18:46:27;;;;;;;1999.90;999.90;;;;;;;2.79;100.00;101418.72;10333463;28;20540;-64
2024/01/06 18:51:33;;;;;;;1999.90;999.90;;;;;;;2.91;100.00;101421.16;10333780;28;20050;-64
2024/01/06 18:56:35;;;;;;;1999.90;999.90;;;;;;;2.90;100.00;101418.59;10333111;28;20568;-64
2024/01/06 19:01:37;;;;;;;1999.90;999.90;;;;;;;2.55;100.00;101427.72;10332333;28;20058;-64
2024/01/06 19:06:40;;;;;;;1999.90;999.90;;;;;;;2.72;100.00;101438.69;10333181;28;20047;-64
2024/01/06 19:11:42;;;;;;;1999.90;999.90;;;;;;;2.68;100.00;101438.75;10331911;28;20539;-64
2024/01/06 19:16:45;;;;;;;1999.90;999.90;;;;;;;2.82;100.00;101447.13;10331979;28;20070;-63
2024/01/06 19:21:49;;;;;;;1999.90;999.90;;;;;;;2.85;100.00;101443.66;10332895;28;20054;-64
2024/01/06 19:26:51;;;;;;;1999.90;999.90;;;;;;;2.67;100.00;101461.13;10332672;28;20481;-64
2024/01/06 19:31:54;;;;;;;1999.90;999.90;;;;;;;2.32;100.00;101461.59;10338743;28;20129;-63
2024/01/06 19:36:56;;;;;;;1999.90;999.90;;;;;;;2.35;100.00;101465.00;10340025;28;20050;-63
2024/01/06 19:41:58;;;;;;;1999.90;999.90;;;;;;;2.45;100.00;101470.06;10340043;28;20058;-64
2024/01/06 19:47:01;;;;;;;1999.90;999.90;;;;;;;2.47;100.00;101479.53;10339795;28;20078;-63
2024/01/06 19:52:03;;;;;;;1999.90;999.90;;;;;;;2.67;100.00;101486.16;10339518;28;20132;-64
2024/01/06 19:57:07;;;;;;;1999.90;999.90;;;;;;;2.58;100.00;101489.72;10338271;28;20133;-64
2024/01/06 20:02:10;;;;;;;1999.90;999.90;;;;;;;2.65;100.00;101493.91;10338154;28;20054;-64
2024/01/06 20:07:12;;;;;;;1999.90;999.90;;;;;;;2.54;100.00;101493.19;10338945;28;20085;-64
2024/01/06 20:12:15;;;;;;;1999.90;999.90;;;;;;;2.48;100.00;101499.31;10337559;28;20050;-64
2024/01/06 20:17:18;;;;;;;1999.90;999.90;;;;;;;2.41;100.00;101505.44;10338566;28;20077;-64
2024/01/06 20:22:21;;;;;;;1999.90;999.90;;;;;;;2.36;100.00;101509.81;10338887;28;20134;-64
2024/01/06 20:27:23;;;;;;;1999.90;999.90;;;;;;;2.50;100.00;101512.22;10338161;28;20421;-64
2024/01/06 20:32:27;;;;;;;1999.90;999.90;;;;;;;2.49;100.00;101500.16;10338430;28;20050;-64
2024/01/06 20:37:29;;;;;;;1999.90;999.90;;;;;;;2.23;100.00;101509.94;10338069;28;20050;-64
2024/01/06 20:42:33;;;;;;;1999.90;999.90;;;;;;;2.33;100.00;101512.44;10337299;28;20056;-64
2024/01/06 20:47:35;;;;;;;1999.90;999.90;;;;;;;2.54;100.00;101514.75;10337570;28;20462;-63
2024/01/06 20:52:38;;;;;;;1999.90;999.90;;;;;;;2.66;100.00;101516.31;10337141;28;20055;-64
2024/01/06 20:57:40;;;;;;;1999.90;999.90;;;;;;;2.52;100.00;101524.28;10337296;28;20133;-64
2024/01/06 21:02:43;;;;;;;1999.90;999.90;;;;;;;2.62;100.00;101526.72;10336938;28;20050;-64
2024/01/06 21:07:47;;;;;;;1999.90;999.90;;;;;;;2.47;100.00;101530.34;10337088;28;20465;-64
2024/01/06 21:12:49;;;;;;;1999.90;999.90;;;;;;;2.39;100.00;101533.03;10336355;28;20065;-64
2024/01/06 21:17:52;;;;;;;1999.90;999.90;;;;;;;2.37;100.00;101532.19;10335199;28;20050;-64
2024/01/06 21:22:54;;;;;;;1999.90;999.90;;;;;;;2.64;100.00;101540.47;10336451;28;20059;-64
2024/01/06 21:27:57;;;;;;;1999.90;999.90;;;;;;;2.62;100.00;101539.66;10334915;28;20046;-64
2024/01/06 21:33:02;;;;;;;1999.90;999.90;;;;;;;2.42;100.00;101539.03;10335769;28;20109;-64
2024/01/06 21:38:12;;;;;;;1999.90;999.90;;;;;;;2.49;100.00;101542.41;10335034;28;20050;-64
2024/01/06 21:43:14;;;;;;;1999.90;999.90;;;;;;;2.51;100.00;101547.56;10334251;28;20050;-64
2024/01/06 21:48:16;;;;;;;1999.90;999.90;;;;;;;2.57;100.00;101550.03;10335665;28;20135;-64
2024/01/06 21:53:19;;;;;;;1999.90;999.90;;;;;;;2.32;100.00;101547.75;10333198;28;20050;-64
2024/01/06 21:58:21;;;;;;;1999.90;999.90;;;;;;;2.51;100.00;101544.97;10334647;28;20052;-64